Time;durP1;ratioP1;P1;durP2;ratioP2;P2;SDS_P1;SDS_P2;PMS_P1;PMS_P2;Temp;Humidity;BMP_temperature;BMP_pressure;BME280_temperature;BME280_humidity;BME280_pressure;Samples;Min_cycle;Max_cycle;Signal;HPM_P1;HPM_P2
2022/08/12 00:44:42;;;;;;;3.07;2.77;;;18.40;77.00;;;;;;4947706;28;20442;-86
2022/08/12 00:47:10;;;;;;;4.53;2.97;;;18.50;76.80;;;;;;4931113;28;20779;-86
2022/08/12 00:49:36;;;;;;;5.40;2.77;;;18.50;77.10;;;;;;4940920;28;20439;-86
2022/08/12 00:52:05;;;;;;;3.50;3.20;;;18.40;77.00;;;;;;4926781;28;20503;-86
2022/08/12 00:54:33;;;;;;;3.63;3.33;;;18.50;76.90;;;;;;4942567;28;20872;-86
2022/08/12 00:57:20;;;;;;;4.80;3.70;;;18.50;77.80;;;;;;4932383;28;20438;-86
2022/08/12 00:59:57;;;;;;;3.90;3.60;;;18.40;77.60;;;;;;4944677;28;21175;-86
2022/08/12 01:02:25;;;;;;;3.73;3.40;;;18.50;77.90;;;;;;4928456;28;20529;-86
2022/08/12 01:13:17;;;;;;;3.40;3.10;;;18.50;77.60;;;;;;4942412;28;20549;-85
2022/08/12 01:15:45;;;;;;;3.60;3.40;;;18.50;78.10;;;;;;4929312;28;22152;-85
2022/08/12 01:18:13;;;;;;;3.93;3.60;;;18.50;78.10;;;;;;4926876;28;20478;-85
2022/08/12 01:20:47;;;;;;;3.50;3.23;;;18.40;78.90;;;;;;4946684;28;20461;-85
2022/08/12 01:23:43;;;;;;;3.97;3.20;;;18.40;79.10;;;;;;4928152;28;20525;-85
2022/08/12 01:26:16;;;;;;;3.87;3.50;;;18.40;79.00;;;;;;4931951;28;20441;-84
2022/08/12 01:28:45;;;;;;;3.70;3.40;;;18.50;79.50;;;;;;4935384;28;20427;-84
2022/08/12 01:31:11;;;;;;;3.77;3.57;;;18.50;79.10;;;;;;4938747;28;20848;-85
2022/08/12 01:34:03;;;;;;;4.10;3.70;;;18.60;79.00;;;;;;4942260;28;20475;-85
2022/08/12 01:36:35;;;;;;;4.33;3.90;;;18.60;79.10;;;;;;4926694;28;20433;-85
2022/08/12 01:39:02;;;;;;;3.40;3.20;;;18.40;80.40;;;;;;4928533;28;20846;-85
2022/08/12 01:41:30;;;;;;;3.70;3.40;;;18.20;81.50;;;;;;4930806;28;20735;-85
2022/08/12 01:43:59;;;;;;;3.77;3.50;;;18.00;82.60;;;;;;4925007;28;20535;-85
2022/08/12 01:46:47;;;;;;;3.40;3.20;;;17.90;82.70;;;;;;4940644;28;20542;-85
2022/08/12 01:49:31;;;;;;;3.90;3.60;;;17.80;83.50;;;;;;4948199;28;20785;-85
2022/08/12 01:52:03;;;;;;;5.70;3.57;;;17.80;83.30;;;;;;4926693;28;20463;-85
2022/08/12 01:54:40;;;;;;;3.67;3.13;;;17.80;83.00;;;;;;4941418;28;20450;-85
2022/08/12 01:57:28;;;;;;;3.70;3.40;;;17.90;82.90;;;;;;4923473;28;21238;-85
2022/08/12 02:00:04;;;;;;;3.80;3.50;;;18.00;83.30;;;;;;4944801;28;20476;-85
2022/08/12 02:02:59;;;;;;;4.00;3.40;;;18.10;83.30;;;;;;4930299;28;20484;-85
2022/08/12 02:11:49;;;;;;;4.30;3.90;;;17.80;84.70;;;;;;4948391;28;20509;-85
2022/08/12 02:14:35;;;;;;;3.50;3.20;;;17.80;85.40;;;;;;4924731;28;20511;-85
2022/08/12 02:17:23;;;;;;;3.83;3.53;;;17.80;85.20;;;;;;4935878;28;20452;-85
2022/08/12 02:20:11;;;;;;;4.13;3.70;;;17.70;85.20;;;;;;4932854;28;20438;-85
2022/08/12 02:22:41;;;;;;;4.93;3.80;;;17.80;85.30;;;;;;4944059;28;20455;-85
2022/08/12 02:25:14;;;;;;;4.17;3.87;;;17.80;85.20;;;;;;4938795;28;20825;-84
2022/08/12 02:27:45;;;;;;;3.80;3.50;;;17.80;86.10;;;;;;4940679;28;20497;-85
2022/08/12 02:30:18;;;;;;;3.87;3.57;;;17.80;86.20;;;;;;4930795;28;20427;-85
2022/08/12 02:32:46;;;;;;;4.07;3.77;;;17.70;86.90;;;;;;4924637;28;20481;-85
2022/08/12 02:35:21;;;;;;;4.00;3.70;;;17.70;87.20;;;;;;4924524;28;20440;-85
2022/08/12 02:37:49;;;;;;;4.10;3.70;;;17.60;87.60;;;;;;4921832;28;20471;-85
2022/08/12 02:40:16;;;;;;;3.67;3.30;;;17.60;87.90;;;;;;4945954;28;20511;-85
2022/08/12 02:43:05;;;;;;;3.33;3.13;;;17.50;88.30;;;;;;4929542;28;20621;-85
2022/08/12 02:45:59;;;;;;;3.70;3.50;;;17.50;89.10;;;;;;4924800;28;21797;-85
2022/08/12 02:48:48;;;;;;;3.83;3.63;;;17.60;89.00;;;;;;4942511;28;20442;-85
2022/08/12 02:51:18;;;;;;;4.00;3.70;;;17.60;89.00;;;;;;4923665;28;20432;-84
2022/08/12 02:53:44;;;;;;;3.50;3.30;;;17.70;88.90;;;;;;4926994;28;20481;-84
2022/08/12 02:56:11;;;;;;;4.07;3.40;;;17.80;88.80;;;;;;4944041;28;20438;-85
2022/08/12 02:58:37;;;;;;;3.67;3.37;;;17.80;89.40;;;;;;4924565;28;20455;-85
2022/08/12 03:01:08;;;;;;;3.63;3.33;;;17.80;89.60;;;;;;4939676;28;20817;-86
2022/08/12 03:03:34;;;;;;;4.50;3.00;;;17.60;89.90;;;;;;4945333;28;20443;-86
2022/08/12 03:06:06;;;;;;;3.23;2.93;;;17.60;88.90;;;;;;4931852;28;20849;-87
2022/08/12 03:08:42;;;;;;;4.00;3.70;;;17.70;88.70;;;;;;4944575;28;20440;-85
2022/08/12 03:11:15;;;;;;;4.27;3.90;;;17.70;87.60;;;;;;4925790;28;20434;-86
2022/08/12 03:13:59;;;;;;;3.83;3.53;;;17.90;87.60;;;;;;4942447;28;20486;-86
2022/08/12 03:16:29;;;;;;;4.00;3.70;;;17.90;87.10;;;;;;4938123;28;20521;-86
2022/08/12 03:18:55;;;;;;;4.00;3.60;;;17.90;87.00;;;;;;4933752;28;20530;-85
2022/08/12 03:21:23;;;;;;;3.60;3.33;;;17.80;87.10;;;;;;4941960;28;20439;-86
2022/08/12 03:23:54;;;;;;;3.60;3.40;;;17.80;87.60;;;;;;4936738;28;20786;-84
2022/08/12 03:26:23;;;;;;;3.73;3.43;;;17.80;88.00;;;;;;4925197;28;21137;-86
2022/08/12 03:28:50;;;;;;;4.10;3.50;;;17.80;88.60;;;;;;4931205;28;20430;-85
2022/08/12 03:31:32;;;;;;;3.90;3.60;;;17.70;89.20;;;;;;4945039;28;20434;-85
2022/08/12 03:34:03;;;;;;;4.30;3.70;;;17.50;89.80;;;;;;4939868;28;20447;-85
2022/08/12 03:36:33;;;;;;;4.30;4.00;;;17.40;90.30;;;;;;4927779;28;20490;-85
2022/08/12 03:42:06;;;;;;;5.43;3.47;;;17.40;90.50;;;;;;4950670;28;20431;-86
2022/08/12 04:01:56;;;;;;;5.70;4.00;;;17.40;90.30;;;;;;4932779;28;20444;-85
2022/08/12 04:04:28;;;;;;;4.80;3.90;;;17.40;90.40;;;;;;4918074;28;20449;-84
2022/08/12 04:06:55;;;;;;;3.73;3.47;;;17.30;90.40;;;;;;4936575;28;21078;-85
2022/08/12 04:09:21;;;;;;;5.17;4.00;;;17.30;90.50;;;;;;4918089;28;20446;-83
2022/08/12 04:14:32;;;;;;;4.27;3.90;;;17.10;91.00;;;;;;4930966;28;20490;-86
2022/08/12 04:16:59;;;;;;;6.17;4.30;;;17.10;91.30;;;;;;4920650;28;20515;-85
2022/08/12 04:19:25;;;;;;;4.10;3.80;;;17.00;91.50;;;;;;4932619;28;20438;-85
2022/08/12 04:21:51;;;;;;;4.23;3.87;;;16.90;92.30;;;;;;4916534;28;20478;-86
2022/08/12 04:24:19;;;;;;;4.00;3.70;;;16.80;92.40;;;;;;4918286;28;20812;-85
2022/08/12 04:26:45;;;;;;;6.63;4.13;;;16.80;92.30;;;;;;4924328;28;20472;-84
2022/08/12 04:29:10;;;;;;;4.57;3.70;;;16.80;92.40;;;;;;4944845;28;20781;-85
2022/08/12 04:31:41;;;;;;;4.00;3.70;;;16.80;92.20;;;;;;4922000;28;20848;-83
2022/08/12 04:34:08;;;;;;;4.73;3.83;;;17.00;92.30;;;;;;4919322;28;21005;-85
2022/08/12 04:36:37;;;;;;;4.27;3.87;;;17.00;91.90;;;;;;4923309;28;20953;-84
2022/08/12 04:39:04;;;;;;;4.50;4.10;;;17.10;92.00;;;;;;4920642;28;20972;-84
2022/08/12 04:41:30;;;;;;;4.00;3.60;;;17.10;91.60;;;;;;4916775;28;20448;-84
2022/08/12 04:43:56;;;;;;;3.93;3.63;;;17.20;91.90;;;;;;4921068;28;20542;-84
2022/08/12 04:46:23;;;;;;;4.40;4.03;;;17.30;91.80;;;;;;4925256;28;20464;-87
2022/08/12 04:48:49;;;;;;;4.07;3.77;;;17.30;91.90;;;;;;4933811;28;20929;-85
2022/08/12 04:51:16;;;;;;;3.97;3.67;;;17.20;91.60;;;;;;4910027;28;20494;-84
2022/08/12 04:53:42;;;;;;;4.50;3.90;;;17.20;91.90;;;;;;4931868;28;20973;-85
2022/08/12 04:56:09;;;;;;;4.27;3.90;;;17.10;91.90;;;;;;4910220;28;20463;-86
2022/08/12 04:58:36;;;;;;;4.60;4.20;;;17.10;91.80;;;;;;4923713;28;20504;-85
2022/08/12 05:01:02;;;;;;;4.17;3.40;;;17.20;91.90;;;;;;4923045;28;20439;-85
2022/08/12 05:03:27;;;;;;;4.10;3.67;;;17.30;92.00;;;;;;4917791;28;20450;-85
2022/08/12 05:05:57;;;;;;;4.13;3.83;;;17.30;91.70;;;;;;4917972;28;20431;-86
2022/08/12 05:08:25;;;;;;;4.03;3.73;;;17.30;91.90;;;;;;4926512;28;20201;-83
2022/08/12 05:11:21;;;;;;;3.90;3.50;;;17.30;92.00;;;;;;4908515;28;20446;-84
2022/08/12 05:14:22;;;;;;;4.10;3.73;;;17.30;92.30;;;;;;4915675;28;20474;-85
2022/08/12 05:16:48;;;;;;;4.30;4.00;;;17.40;92.10;;;;;;4919068;28;20828;-84
2022/08/12 05:19:13;;;;;;;4.80;4.10;;;17.30;92.30;;;;;;4911683;28;20482;-84
2022/08/12 05:21:45;;;;;;;4.50;4.10;;;17.30;92.30;;;;;;4909754;28;20194;-86
2022/08/12 05:24:10;;;;;;;4.33;4.03;;;17.30;92.40;;;;;;4933858;28;20277;-84
2022/08/12 05:26:36;;;;;;;4.40;4.10;;;17.20;92.90;;;;;;4930211;28;20527;-85
2022/08/12 05:29:06;;;;;;;4.27;3.93;;;17.30;92.80;;;;;;4924868;28;20202;-92
2022/08/12 05:31:31;;;;;;;5.30;4.03;;;17.30;93.00;;;;;;4934305;28;20557;-90
2022/08/12 05:34:01;;;;;;;4.73;4.30;;;17.50;92.60;;;;;;4940810;28;20518;-91
2022/08/12 05:36:27;;;;;;;4.87;4.33;;;17.40;92.30;;;;;;4925539;28;20187;-92
2022/08/12 05:38:55;;;;;;;5.77;4.20;;;17.40;92.80;;;;;;4919604;28;20450;-92
2022/08/12 05:41:25;;;;;;;4.10;3.90;;;17.40;92.70;;;;;;4925189;28;20186;-91
2022/08/12 05:43:53;;;;;;;4.97;3.93;;;17.40;92.90;;;;;;4942853;28;20586;-91
2022/08/12 05:46:20;;;;;;;4.50;4.10;;;17.50;93.10;;;;;;4925001;28;20429;-91
2022/08/12 05:48:48;;;;;;;4.40;4.07;;;17.50;92.90;;;;;;4942501;28;20446;-91
2022/08/12 05:51:14;;;;;;;4.30;3.60;;;17.60;92.70;;;;;;4925783;28;20446;-90
2022/08/12 05:53:41;;;;;;;4.20;3.87;;;17.70;92.90;;;;;;4928388;28;20643;-91
2022/08/12 05:56:21;;;;;;;5.90;3.30;;;17.70;92.70;;;;;;4929996;28;20849;-91
2022/08/12 05:58:47;;;;;;;4.63;4.30;;;17.70;92.90;;;;;;4920627;28;20449;-90
2022/08/12 06:01:13;;;;;;;4.50;4.10;;;17.80;92.90;;;;;;4940759;28;20952;-91
2022/08/12 06:03:41;;;;;;;6.07;4.00;;;17.90;92.60;;;;;;4948173;28;20446;-92
2022/08/12 06:06:06;;;;;;;4.47;4.17;;;18.00;92.30;;;;;;4925664;28;20435;-90
2022/08/12 06:08:35;;;;;;;4.13;3.83;;;18.00;92.00;;;;;;4928385;28;20631;-91
2022/08/12 06:11:04;;;;;;;4.33;3.67;;;18.10;91.70;;;;;;4928386;28;20221;-90
2022/08/12 06:13:35;;;;;;;4.10;3.80;;;18.10;91.50;;;;;;4926665;28;20510;-91
2022/08/12 06:16:00;;;;;;;5.10;3.83;;;18.20;91.60;;;;;;4928953;28;20443;-91
2022/08/12 06:18:26;;;;;;;4.10;3.80;;;18.30;92.30;;;;;;4944084;28;20447;-91
2022/08/12 06:20:57;;;;;;;4.10;3.57;;;18.40;92.10;;;;;;4929254;28;20217;-90
2022/08/12 06:23:27;;;;;;;4.90;4.27;;;18.60;92.00;;;;;;4928218;28;20194;-91
2022/08/12 06:25:55;;;;;;;4.53;4.23;;;18.70;91.70;;;;;;4922229;28;20447;-92
2022/08/12 06:28:22;;;;;;;4.43;3.50;;;18.70;91.90;;;;;;4931531;28;20453;-91
2022/08/12 06:30:49;;;;;;;3.90;3.60;;;18.80;92.00;;;;;;4928862;28;20442;-90
2022/08/12 06:33:15;;;;;;;4.17;3.87;;;18.90;91.60;;;;;;4945130;28;20921;-91
2022/08/12 06:35:41;;;;;;;4.03;3.60;;;19.00;91.30;;;;;;4930008;28;20522;-92
2022/08/12 06:38:23;;;;;;;4.23;3.73;;;19.10;91.30;;;;;;4932009;28;20283;-91
2022/08/12 06:43:37;;;;;;;3.90;3.60;;;19.20;91.10;;;;;;4939701;28;20433;-91
2022/08/12 06:46:03;;;;;;;4.50;4.10;;;19.30;91.40;;;;;;4928567;28;20936;-91
2022/08/12 06:48:30;;;;;;;3.50;3.27;;;19.40;91.10;;;;;;4942130;28;20591;-90
2022/08/12 06:50:56;;;;;;;5.87;3.70;;;19.50;91.00;;;;;;4933477;28;20960;-91
2022/08/12 06:53:24;;;;;;;3.93;3.57;;;19.60;91.10;;;;;;4940213;28;20471;-91
2022/08/12 06:55:53;;;;;;;4.10;3.80;;;19.70;89.30;;;;;;4939394;28;20544;-90
2022/08/12 06:58:19;;;;;;;6.43;4.00;;;19.80;89.10;;;;;;4945429;28;20479;-90
2022/08/12 07:00:46;;;;;;;4.33;4.03;;;19.90;88.90;;;;;;4931934;28;20438;-91
2022/08/12 07:03:17;;;;;;;3.80;3.50;;;19.90;88.20;;;;;;4947778;28;20439;-91
2022/08/12 07:05:43;;;;;;;3.70;3.37;;;20.00;87.90;;;;;;4932631;28;20438;-91
2022/08/12 07:08:12;;;;;;;5.30;3.77;;;20.20;87.80;;;;;;4930485;28;20431;-92
2022/08/12 07:10:41;;;;;;;7.17;3.43;;;20.30;88.10;;;;;;4926689;28;20573;-91
2022/08/12 07:13:07;;;;;;;3.67;3.40;;;20.40;88.40;;;;;;4918328;28;20490;-90
2022/08/12 07:15:34;;;;;;;4.77;3.50;;;20.50;88.40;;;;;;4943802;28;20471;-91
2022/08/12 07:18:10;;;;;;;3.50;3.20;;;20.50;85.20;;;;;;4942217;28;20446;-91
2022/08/12 07:20:39;;;;;;;3.93;3.47;;;20.60;85.30;;;;;;4944926;28;20501;-91
2022/08/12 07:23:05;;;;;;;4.40;4.00;;;20.70;85.80;;;;;;4922954;28;20469;-92
2022/08/12 07:25:35;;;;;;;3.80;3.50;;;20.80;84.80;;;;;;4920605;28;20536;-92
2022/08/12 07:28:18;;;;;;;5.17;3.00;;;20.80;85.60;;;;;;4926809;28;20438;-92
2022/08/12 07:30:47;;;;;;;7.03;3.67;;;20.90;85.60;;;;;;4943789;28;20429;-91
2022/08/12 07:33:14;;;;;;;4.10;3.80;;;21.00;85.00;;;;;;4944757;28;20477;-92
2022/08/12 07:35:46;;;;;;;3.27;2.97;;;21.20;83.80;;;;;;4920204;28;20877;-92
2022/08/12 07:38:26;;;;;;;4.70;3.20;;;21.30;82.60;;;;;;4939697;28;20834;-91
2022/08/12 07:41:22;;;;;;;5.07;2.90;;;21.40;80.00;;;;;;4943423;28;20450;-91
2022/08/12 07:44:03;;;;;;;4.23;3.23;;;21.60;81.00;;;;;;4929044;28;20444;-91
2022/08/12 07:46:35;;;;;;;4.13;3.30;;;21.70;81.70;;;;;;4942858;28;20492;-90
2022/08/12 07:49:06;;;;;;;3.63;3.33;;;21.80;80.40;;;;;;4921753;28;20454;-91
2022/08/12 07:51:32;;;;;;;3.23;3.00;;;21.90;80.10;;;;;;4943174;28;20445;-91
2022/08/12 07:53:59;;;;;;;3.33;3.07;;;22.00;78.30;;;;;;4927501;28;20485;-91
2022/08/12 07:56:26;;;;;;;3.17;2.90;;;22.10;79.00;;;;;;4946267;28;20209;-92
2022/08/12 07:58:52;;;;;;;3.70;3.10;;;22.20;78.90;;;;;;4941543;28;20822;-92
2022/08/12 08:01:20;;;;;;;3.50;3.00;;;22.20;77.20;;;;;;4926786;28;20430;-92
2022/08/12 08:06:32;;;;;;;2.93;2.70;;;22.50;78.80;;;;;;4945381;28;20876;-90
2022/08/12 08:08:59;;;;;;;2.90;2.70;;;22.70;77.60;;;;;;4938005;28;20446;-91
2022/08/12 08:14:09;;;;;;;3.93;3.40;;;22.90;75.40;;;;;;4941358;28;20470;-92
2022/08/12 08:16:40;;;;;;;3.03;2.83;;;23.10;74.30;;;;;;4932769;28;20929;-93
2022/08/12 08:19:22;;;;;;;3.90;3.10;;;23.10;74.20;;;;;;4940941;28;20533;-92
2022/08/12 08:21:48;;;;;;;2.50;2.30;;;23.30;73.60;;;;;;4924591;28;20527;-92
2022/08/12 08:24:14;;;;;;;3.27;3.00;;;23.40;74.50;;;;;;4938747;28;20459;-90
2022/08/12 08:26:44;;;;;;;3.20;2.87;;;23.50;71.40;;;;;;4942229;28;20438;-92
2022/08/12 08:29:28;;;;;;;4.30;3.00;;;23.50;70.70;;;;;;4943419;28;20171;-91
2022/08/12 08:31:57;;;;;;;5.60;3.40;;;23.60;73.40;;;;;;4927817;28;20491;-91
2022/08/12 08:34:25;;;;;;;3.23;2.93;;;23.70;73.50;;;;;;4924257;28;20459;-92
2022/08/12 08:36:50;;;;;;;3.27;2.97;;;23.70;70.60;;;;;;4922682;28;20431;-91
2022/08/12 08:39:16;;;;;;;3.10;2.87;;;23.80;71.10;;;;;;4925690;28;20454;-90
2022/08/12 08:44:26;;;;;;;3.40;2.90;;;24.00;67.90;;;;;;4939542;28;20667;-92
2022/08/12 08:46:54;;;;;;;3.23;2.67;;;24.10;70.30;;;;;;4929517;28;20427;-92
2022/08/12 08:49:22;;;;;;;3.63;2.90;;;24.30;68.50;;;;;;4940570;28;20187;-92
2022/08/12 08:51:48;;;;;;;3.13;2.57;;;24.40;68.40;;;;;;4929277;28;20438;-91
2022/08/12 08:54:14;;;;;;;3.00;2.80;;;24.60;66.90;;;;;;4927492;28;20514;-91
2022/08/12 08:56:45;;;;;;;3.10;2.70;;;24.60;65.10;;;;;;4924564;28;20459;-91
2022/08/12 08:59:11;;;;;;;4.13;2.90;;;24.60;66.20;;;;;;4895994;28;1061218;-91
2022/08/12 09:01:38;;;;;;;2.40;2.30;;;24.50;64.40;;;;;;4929539;28;20187;-91
2022/08/12 09:04:06;;;;;;;3.50;2.93;;;24.50;65.40;;;;;;4947320;28;20532;-89
2022/08/12 09:06:31;;;;;;;4.00;2.90;;;24.60;65.80;;;;;;4949739;28;20445;-90
2022/08/12 09:08:57;;;;;;;2.80;2.60;;;24.70;64.00;;;;;;4945005;28;20944;-91
2022/08/12 09:14:09;;;;;;;5.23;3.00;;;24.80;64.50;;;;;;4946616;28;20249;-91
2022/08/12 09:16:37;;;;;;;2.53;2.33;;;24.80;61.40;;;;;;4929071;28;20491;-91
2022/08/12 09:19:04;;;;;;;4.03;2.97;;;25.10;61.40;;;;;;4930590;28;20472;-92
2022/08/12 09:21:30;;;;;;;3.07;2.67;;;25.20;64.10;;;;;;4929212;28;20431;-90
2022/08/12 09:23:59;;;;;;;3.43;2.40;;;25.40;64.60;;;;;;4927719;28;21083;-90
2022/08/12 09:26:28;;;;;;;2.50;2.30;;;25.50;61.70;;;;;;4929860;28;20493;-92
2022/08/12 09:28:54;;;;;;;2.77;2.57;;;25.50;58.70;;;;;;4935069;28;20427;-94
2022/08/12 09:31:24;;;;;;;2.90;2.33;;;25.50;58.80;;;;;;4948621;28;20446;-92
2022/08/12 09:33:50;;;;;;;2.57;2.37;;;25.70;62.20;;;;;;4945082;28;20489;-92
2022/08/12 09:36:22;;;;;;;2.63;2.43;;;25.80;58.50;;;;;;4933957;28;20825;-92
2022/08/12 09:39:01;;;;;;;2.50;2.30;;;25.80;55.50;;;;;;4949607;28;20430;-90
2022/08/12 09:41:27;;;;;;;2.77;2.57;;;25.70;58.20;;;;;;4929457;28;20478;-93
2022/08/12 09:46:36;;;;;;;3.70;2.77;;;25.70;58.70;;;;;;4945625;28;20278;-92
2022/08/12 09:49:03;;;;;;;6.10;2.70;;;26.00;57.50;;;;;;4943701;28;21027;-92
2022/08/12 09:51:35;;;;;;;3.00;2.20;;;26.30;57.20;;;;;;4925494;28;20190;-91
2022/08/12 09:54:01;;;;;;;2.70;2.50;;;26.30;56.70;;;;;;4922873;28;20931;-86
2022/08/12 09:56:38;;;;;;;2.60;2.40;;;26.30;58.10;;;;;;4936156;28;20517;-88
2022/08/12 09:59:06;;;;;;;6.10;2.70;;;26.10;55.80;;;;;;4924178;28;20558;-87
2022/08/12 10:01:32;;;;;;;2.67;2.43;;;26.20;56.00;;;;;;4940100;28;20434;-87
2022/08/12 10:04:03;;;;;;;3.80;3.20;;;26.40;57.60;;;;;;4924527;28;20533;-87
2022/08/12 10:06:30;;;;;;;2.27;2.17;;;26.60;55.20;;;;;;4939598;28;20905;-87
2022/08/12 10:08:59;;;;;;;2.40;2.20;;;26.70;55.50;;;;;;4938142;28;20477;-87
2022/08/12 10:14:18;;;;;;;2.43;2.13;;;26.70;55.10;;;;;;4936547;28;20826;-88
2022/08/12 10:16:44;;;;;;;2.00;1.90;;;26.60;53.90;;;;;;4919611;28;20469;-88
2022/08/12 10:19:26;;;;;;;2.33;2.13;;;26.70;53.40;;;;;;4923285;28;20843;-88
2022/08/12 10:21:54;;;;;;;4.43;1.93;;;26.80;53.20;;;;;;4907940;28;20458;-88
2022/08/12 10:24:22;;;;;;;2.53;2.33;;;26.80;53.20;;;;;;4920595;28;20454;-88
2022/08/12 10:29:46;;;;;;;2.30;2.20;;;26.80;54.10;;;;;;4937080;28;20518;-88
2022/08/12 10:32:23;;;;;;;2.40;2.30;;;27.00;54.80;;;;;;4922265;28;20469;-88
2022/08/12 10:34:50;;;;;;;2.30;2.20;;;27.40;53.40;;;;;;4900423;28;20459;-87
2022/08/12 10:37:17;;;;;;;2.50;2.30;;;27.40;52.00;;;;;;4934305;28;20861;-87
2022/08/12 10:39:54;;;;;;;;;;;;;;;;;;;;;
2022/08/12 10:45:07;;;;;;;3.10;2.40;;;27.10;50.50;;;;;;4939497;28;20552;-88
2022/08/12 10:47:36;;;;;;;2.23;2.13;;;27.30;47.10;;;;;;4920598;28;20451;-89
2022/08/12 10:50:04;;;;;;;2.57;2.20;;;27.30;49.30;;;;;;4939293;28;20423;-88
2022/08/12 10:52:40;;;;;;;2.10;2.00;;;27.10;50.60;;;;;;4940957;28;20836;-89
2022/08/12 10:55:22;;;;;;;2.27;2.07;;;27.30;49.70;;;;;;4926722;28;20459;-89
2022/08/12 10:57:48;;;;;;;2.77;2.53;;;27.70;51.30;;;;;;4924810;28;20437;-89
2022/08/12 11:00:21;;;;;;;2.50;2.30;;;27.90;49.30;;;;;;4921103;28;20206;-89
2022/08/12 11:02:59;;;;;;;2.40;2.20;;;28.10;48.70;;;;;;4921648;28;20439;-89
2022/08/12 11:05:24;;;;;;;2.30;2.10;;;28.20;49.20;;;;;;4936625;28;20819;-90
2022/08/12 11:07:50;;;;;;;3.37;2.33;;;28.40;49.50;;;;;;4918175;28;20438;-89
2022/08/12 11:10:16;;;;;;;2.20;2.00;;;28.50;48.30;;;;;;4931891;28;20203;-89
2022/08/12 11:12:55;;;;;;;2.40;2.00;;;28.30;48.40;;;;;;4938544;28;20569;-89
2022/08/12 11:15:24;;;;;;;2.63;2.20;;;28.20;48.90;;;;;;4920268;28;20307;-88
2022/08/12 11:17:52;;;;;;;3.67;2.10;;;28.20;49.20;;;;;;4922132;28;20457;-89
2022/08/12 11:20:18;;;;;;;2.73;2.53;;;28.20;50.10;;;;;;4933193;28;20450;-90
2022/08/12 11:22:57;;;;;;;2.20;2.10;;;28.40;47.80;;;;;;4924686;28;20808;-89
2022/08/12 11:25:22;;;;;;;2.47;2.27;;;28.60;49.10;;;;;;4934274;28;20206;-89
2022/08/12 11:27:48;;;;;;;2.77;2.20;;;28.90;48.40;;;;;;4921485;28;20968;-89
2022/08/12 11:30:15;;;;;;;2.20;2.10;;;28.90;47.80;;;;;;4921962;28;21552;-89
2022/08/12 11:32:42;;;;;;;2.27;2.17;;;28.90;48.20;;;;;;4919029;28;20202;-89
2022/08/12 11:35:11;;;;;;;2.60;2.50;;;29.30;46.00;;;;;;4916598;28;20537;-89
2022/08/12 11:37:37;;;;;;;3.77;2.27;;;29.40;47.30;;;;;;4939334;28;20455;-88
2022/08/12 11:40:12;;;;;;;2.50;2.30;;;29.90;47.00;;;;;;4926242;28;20599;-89
2022/08/12 11:42:46;;;;;;;2.30;2.10;;;29.50;46.90;;;;;;4939110;28;20554;-89
2022/08/12 11:45:29;;;;;;;2.40;2.30;;;29.90;46.00;;;;;;4919451;28;20499;-85
2022/08/12 11:48:02;;;;;;;2.30;2.10;;;29.60;43.40;;;;;;4937814;28;20446;-89
2022/08/12 11:50:33;;;;;;;2.37;2.17;;;29.30;43.90;;;;;;4917104;28;20512;-88
2022/08/12 11:53:14;;;;;;;2.00;1.90;;;29.30;44.20;;;;;;4921959;28;21023;-88
2022/08/12 11:55:50;;;;;;;2.20;2.10;;;29.40;45.80;;;;;;4925738;28;20451;-88
2022/08/12 11:58:16;;;;;;;2.57;2.23;;;29.60;47.20;;;;;;4936965;28;20430;-88
2022/08/12 12:00:41;;;;;;;2.40;2.20;;;29.60;42.30;;;;;;4925526;28;20435;-88
2022/08/12 12:03:07;;;;;;;2.07;1.97;;;29.30;43.40;;;;;;4921927;28;20226;-88
2022/08/12 12:05:32;;;;;;;2.60;2.50;;;29.20;45.40;;;;;;4917556;28;20190;-88
2022/08/12 12:07:58;;;;;;;2.70;2.50;;;29.50;47.40;;;;;;4937677;28;20233;-88
2022/08/12 12:10:24;;;;;;;2.30;2.20;;;29.90;43.30;;;;;;4919934;28;20180;-87
2022/08/12 12:12:49;;;;;;;2.83;2.50;;;30.50;43.70;;;;;;4937335;28;20214;-89
2022/08/12 12:15:15;;;;;;;3.47;2.70;;;31.40;44.80;;;;;;4937082;28;20678;-88
2022/08/12 12:17:41;;;;;;;2.57;2.17;;;30.90;43.50;;;;;;4917041;28;20189;-88
2022/08/12 12:20:12;;;;;;;2.53;2.23;;;29.70;43.80;;;;;;4905214;28;20901;-88
2022/08/12 12:22:41;;;;;;;2.50;2.37;;;28.80;46.70;;;;;;4929558;28;20538;-88
2022/08/12 12:28:52;;;;;;;3.40;2.23;;;27.80;48.70;;;;;;4871856;29;20437;-88
2022/08/12 12:31:18;;;;;;;2.53;2.33;;;28.10;47.80;;;;;;4913564;28;20454;-89
2022/08/12 12:33:56;;;;;;;2.73;2.53;;;27.80;49.00;;;;;;4929716;28;20494;-88
2022/08/12 12:36:52;;;;;;;2.40;2.20;;;27.40;48.90;;;;;;4936498;28;20195;-89
2022/08/12 12:39:39;;;;;;;2.60;2.40;;;28.10;48.00;;;;;;4931607;28;20917;-90
2022/08/12 12:42:06;;;;;;;2.47;2.33;;;29.40;50.60;;;;;;4907448;28;20457;-89
2022/08/12 12:44:32;;;;;;;3.60;2.60;;;29.40;45.60;;;;;;4936536;28;20997;-88
2022/08/12 12:47:09;;;;;;;3.13;2.83;;;28.30;46.00;;;;;;4937139;28;21028;-88
2022/08/12 12:49:34;;;;;;;2.77;2.57;;;28.10;47.10;;;;;;4922078;28;20431;-89
2022/08/12 12:52:03;;;;;;;2.70;2.50;;;28.30;49.20;;;;;;4937230;28;20526;-89
2022/08/12 12:54:31;;;;;;;3.40;2.67;;;28.40;47.10;;;;;;4904902;28;20191;-89
2022/08/12 12:56:57;;;;;;;2.73;2.43;;;28.20;47.70;;;;;;4921285;28;20423;-89
2022/08/12 12:59:23;;;;;;;4.20;2.40;;;28.10;48.10;;;;;;4912785;28;21172;-89
2022/08/12 13:01:49;;;;;;;3.67;2.03;;;28.40;49.70;;;;;;4924613;28;20183;-89
2022/08/12 13:04:17;;;;;;;4.87;2.80;;;29.10;47.90;;;;;;4931841;28;20858;-91
2022/08/12 13:06:51;;;;;;;5.23;2.63;;;29.90;47.80;;;;;;4914639;28;20191;-89
2022/08/12 13:09:22;;;;;;;2.10;2.00;;;30.50;46.30;;;;;;4928316;28;20882;-89
2022/08/12 13:11:49;;;;;;;2.03;1.93;;;29.50;45.00;;;;;;4917883;28;20793;-90
2022/08/12 13:14:18;;;;;;;3.40;2.57;;;29.30;45.70;;;;;;4914195;28;20462;-89
2022/08/12 13:16:46;;;;;;;3.00;2.73;;;29.50;47.60;;;;;;4931924;28;20254;-90
2022/08/12 13:19:22;;;;;;;4.33;2.03;;;29.80;43.80;;;;;;4915439;28;20454;-90
2022/08/12 13:24:35;;;;;;;2.30;2.20;;;30.40;43.40;;;;;;4926584;28;20461;-89
2022/08/12 13:27:01;;;;;;;2.50;1.90;;;30.60;43.60;;;;;;4932071;28;21894;-91
2022/08/12 13:29:37;;;;;;;2.80;2.53;;;30.50;44.30;;;;;;4911991;28;20453;-90
2022/08/12 13:32:11;;;;;;;2.00;1.90;;;30.00;44.20;;;;;;4926674;28;20449;-91
2022/08/12 13:34:56;;;;;;;2.10;1.90;;;30.50;44.50;;;;;;4930491;28;20450;-90
2022/08/12 13:37:23;;;;;;;2.43;2.30;;;31.00;44.00;;;;;;4914654;28;21081;-90
2022/08/12 13:39:50;;;;;;;3.30;2.17;;;32.00;43.30;;;;;;4912052;28;20700;-89
2022/08/12 13:42:16;;;;;;;4.40;2.27;;;31.60;42.30;;;;;;4912466;28;21204;-89
2022/08/12 13:44:43;;;;;;;3.50;2.10;;;31.60;42.80;;;;;;4932291;28;21312;-90
2022/08/12 13:47:12;;;;;;;2.77;2.10;;;31.20;42.00;;;;;;4918278;28;20447;-90
2022/08/12 13:50:10;;;;;;;4.43;2.17;;;30.10;42.60;;;;;;4915934;28;20953;-91
2022/08/12 13:52:42;;;;;;;2.30;2.10;;;29.60;42.80;;;;;;4930958;28;21863;-91
2022/08/12 13:55:24;;;;;;;2.10;1.87;;;28.90;45.70;;;;;;4931771;28;20450;-91
2022/08/12 13:58:15;;;;;;;2.23;2.00;;;28.30;44.80;;;;;;4932769;28;20782;-91
2022/08/12 14:01:05;;;;;;;;;;;;;;;;;;;;;
2022/08/12 14:03:38;;;;;;;5.50;2.10;;;29.50;44.00;;;;;;4934073;28;20490;-90
2022/08/12 14:06:14;;;;;;;2.20;2.00;;;28.80;44.50;;;;;;4926597;28;20821;-90
2022/08/12 14:08:42;;;;;;;2.23;2.00;;;27.80;45.90;;;;;;4938578;28;20495;-90
2022/08/12 14:11:07;;;;;;;3.87;2.17;;;28.40;44.70;;;;;;4921759;28;21631;-90
2022/08/12 14:13:41;;;;;;;2.80;2.13;;;32.20;43.50;;;;;;4919119;28;20442;-91
2022/08/12 14:16:17;;;;;;;2.30;2.13;;;33.90;39.50;;;;;;4937860;28;20234;-90
2022/08/12 14:18:46;;;;;;;3.07;2.17;;;36.50;36.20;;;;;;4938247;28;20434;-92
2022/08/12 14:21:15;;;;;;;2.43;1.87;;;38.70;32.90;;;;;;4922286;28;20509;-91
2022/08/12 14:24:01;;;;;;;;;;;;;;;;;;;;;
2022/08/12 14:26:31;;;;;;;2.50;2.00;;;38.70;31.90;;;;;;4935273;28;20450;-90
2022/08/12 14:28:56;;;;;;;5.30;2.07;;;39.90;31.30;;;;;;4915881;28;20458;-90
2022/08/12 14:31:22;;;;;;;2.03;1.93;;;40.30;29.70;;;;;;4921319;28;20432;-90
2022/08/12 14:34:02;;;;;;;2.13;2.03;;;37.40;29.70;;;;;;4916111;28;20225;-91
2022/08/12 14:39:16;;;;;;;4.37;2.00;;;32.10;36.00;;;;;;4917700;28;21671;-91
2022/08/12 14:42:02;;;;;;;2.10;1.93;;;30.50;40.10;;;;;;4912733;28;20498;-89
2022/08/12 14:44:27;;;;;;;2.00;1.90;;;32.10;38.00;;;;;;4914799;28;20455;-91
2022/08/12 14:46:56;;;;;;;3.83;2.17;;;33.50;37.40;;;;;;4932579;28;20442;-91
2022/08/12 14:49:22;;;;;;;2.30;2.20;;;35.70;35.20;;;;;;4919342;28;20257;-90
2022/08/12 14:51:51;;;;;;;1.73;1.63;;;36.30;33.80;;;;;;4929625;28;20632;-90
2022/08/12 14:54:19;;;;;;;2.10;1.90;;;37.10;32.00;;;;;;4902075;28;20509;-90
2022/08/12 14:56:45;;;;;;;2.20;2.00;;;38.10;30.70;;;;;;4916897;28;20448;-89
2022/08/12 15:01:58;;;;;;;2.00;1.90;;;38.40;28.30;;;;;;4937256;28;20197;-87
2022/08/12 15:04:27;;;;;;;2.83;2.07;;;37.80;28.10;;;;;;4920613;28;20253;-87
2022/08/12 15:06:53;;;;;;;2.47;1.90;;;35.40;31.30;;;;;;4911874;28;20210;-83